createdAt,value
2018-07-14T00:00:29.927Z,99.99
2018-07-14T00:01:38.583Z,99.99
2018-07-14T00:02:47.488Z,99.99
2018-07-14T00:03:56.144Z,99.99
2018-07-14T00:05:05.051Z,99.99
2018-07-14T00:06:13.705Z,99.99
2018-07-14T00:07:22.604Z,99.99
2018-07-14T00:08:31.254Z,99.99
2018-07-14T00:09:39.896Z,99.99
2018-07-14T00:10:48.553Z,99.99
2018-07-14T00:11:57.197Z,99.99
2018-07-14T00:13:05.848Z,99.99
2018-07-14T00:14:14.488Z,99.99
2018-07-14T00:15:23.138Z,99.99
2018-07-14T00:16:31.785Z,99.99
2018-07-14T00:17:40.697Z,99.99
2018-07-14T00:18:49.344Z,99.99
2018-07-14T00:19:57.993Z,99.99
2018-07-14T00:21:06.919Z,99.99
2018-07-14T00:22:15.567Z,99.99
2018-07-14T00:23:24.218Z,99.99
2018-07-14T00:24:33.129Z,99.99
2018-07-14T00:25:41.770Z,99.99
2018-07-14T00:26:50.415Z,99.99
2018-07-14T00:27:59.069Z,99.99
2018-07-14T00:29:08.234Z,99.99
2018-07-14T00:30:16.884Z,99.99
2018-07-14T00:31:25.528Z,99.99
2018-07-14T00:32:34.178Z,99.99
2018-07-14T00:33:43.091Z,99.99
2018-07-14T00:34:51.735Z,99.99
2018-07-14T00:36:00.381Z,99.99
2018-07-14T00:37:09.024Z,99.99
2018-07-14T00:38:17.673Z,99.99
2018-07-14T00:39:26.320Z,99.99
2018-07-14T00:40:34.971Z,99.99
2018-07-14T00:41:43.613Z,99.99
2018-07-14T00:42:52.264Z,99.99
2018-07-14T00:44:00.908Z,99.99
2018-07-14T00:45:09.555Z,99.99
2018-07-14T00:46:18.198Z,99.99
2018-07-14T00:47:26.848Z,99.99
2018-07-14T00:48:35.750Z,99.99
2018-07-14T00:49:44.400Z,99.99
2018-07-14T00:50:53.043Z,99.99
2018-07-14T00:52:01.690Z,99.99
2018-07-14T00:53:10.336Z,99.99
2018-07-14T00:54:18.981Z,99.99
2018-07-14T00:55:27.630Z,99.99
2018-07-14T00:56:36.271Z,99.99
2018-07-14T00:57:44.917Z,99.99
2018-07-14T00:58:53.560Z,99.99
2018-07-14T01:00:02.491Z,99.99
2018-07-14T01:01:11.130Z,99.99
2018-07-14T01:02:20.040Z,99.99
2018-07-14T01:03:28.684Z,99.99
2018-07-14T01:04:37.595Z,99.99
2018-07-14T01:05:46.234Z,99.99
2018-07-14T01:06:54.882Z,99.99
2018-07-14T01:08:03.525Z,99.99
2018-07-14T01:09:12.176Z,99.99
2018-07-14T01:10:20.818Z,99.99
2018-07-14T01:11:29.469Z,99.99
2018-07-14T01:12:38.371Z,99.99
2018-07-14T01:13:47.017Z,99.99
2018-07-14T01:14:55.917Z,99.99
2018-07-14T01:16:04.562Z,99.99
2018-07-14T01:17:13.209Z,99.99
2018-07-14T01:18:21.861Z,99.99
2018-07-14T01:19:30.504Z,99.99
2018-07-14T01:20:39.150Z,99.99
2018-07-14T01:21:48.061Z,99.99
2018-07-14T01:22:56.713Z,99.99
2018-07-14T01:24:05.360Z,99.99
2018-07-14T01:25:14.002Z,99.99
2018-07-14T01:26:22.644Z,99.99
2018-07-14T01:27:31.564Z,99.99
2018-07-14T01:28:40.208Z,99.99
2018-07-14T01:29:48.856Z,99.99
2018-07-14T01:30:57.502Z,99.99
2018-07-14T01:32:06.415Z,99.99
2018-07-14T01:33:15.335Z,99.99
2018-07-14T01:34:23.982Z,99.99
2018-07-14T01:35:32.629Z,99.99
2018-07-14T01:36:41.269Z,99.99
2018-07-14T01:37:49.918Z,99.99
2018-07-14T01:38:58.562Z,99.99
2018-07-14T01:40:07.210Z,99.99
2018-07-14T01:41:16.112Z,99.99
2018-07-14T01:42:24.759Z,99.99
2018-07-14T01:43:33.404Z,99.99
2018-07-14T01:44:42.060Z,99.99
2018-07-14T01:45:50.695Z,99.99
2018-07-14T01:46:59.344Z,99.99
2018-07-14T01:48:07.989Z,99.99
2018-07-14T01:49:16.636Z,99.99
2018-07-14T01:50:25.547Z,99.99
2018-07-14T01:51:34.449Z,99.99
2018-07-14T01:52:43.095Z,99.99
2018-07-14T01:53:51.744Z,99.99
2018-07-14T01:55:00.389Z,99.99
2018-07-14T01:56:09.032Z,99.99
2018-07-14T01:57:17.675Z,99.99
2018-07-14T01:58:26.582Z,99.99
2018-07-14T01:59:35.227Z,99.99
2018-07-14T02:00:43.874Z,99.99
2018-07-14T02:01:52.779Z,99.99
2018-07-14T02:03:01.422Z,99.99
2018-07-14T02:04:10.074Z,99.99
2018-07-14T02:05:18.714Z,99.99
2018-07-14T02:06:27.625Z,99.99
2018-07-14T02:07:36.269Z,99.99
2018-07-14T02:08:44.913Z,99.99
2018-07-14T02:09:53.561Z,99.99
2018-07-14T02:11:02.206Z,99.99
2018-07-14T02:12:10.855Z,99.99
2018-07-14T02:13:19.491Z,99.99
2018-07-14T02:14:28.146Z,99.99
2018-07-14T02:15:36.789Z,99.99
2018-07-14T02:16:45.436Z,99.99
2018-07-14T02:17:54.070Z,99.99
2018-07-14T02:19:02.725Z,99.99
2018-07-14T02:20:11.630Z,99.99
2018-07-14T02:21:20.282Z,99.99
2018-07-14T02:22:28.917Z,99.99
2018-07-14T02:23:37.564Z,99.99
2018-07-14T02:24:46.213Z,99.99
2018-07-14T02:25:54.860Z,99.99
2018-07-14T02:27:03.777Z,99.99
2018-07-14T02:28:12.674Z,99.99
2018-07-14T02:29:21.322Z,99.99
2018-07-14T02:30:29.968Z,99.99
2018-07-14T02:31:39.164Z,99.99
2018-07-14T02:32:47.803Z,99.99
2018-07-14T02:33:56.721Z,99.99
2018-07-14T02:35:05.630Z,99.99
2018-07-14T02:36:14.555Z,99.99
2018-07-14T02:37:23.729Z,99.99
2018-07-14T02:38:32.388Z,99.99
2018-07-14T02:39:41.028Z,99.99
2018-07-14T02:40:49.966Z,99.99
2018-07-14T02:41:58.865Z,99.99
2018-07-14T02:43:07.771Z,99.99
2018-07-14T02:44:16.961Z,99.99
2018-07-14T02:45:25.604Z,99.99
2018-07-14T02:46:34.268Z,99.99
2018-07-14T02:47:43.167Z,99.99
2018-07-14T02:48:51.814Z,99.99
2018-07-14T02:50:00.459Z,99.99
2018-07-14T02:51:09.113Z,99.99
2018-07-14T02:52:17.760Z,99.99
2018-07-14T02:53:27.210Z,99.99
2018-07-14T02:54:35.854Z,99.99
2018-07-14T02:55:44.511Z,99.99
2018-07-14T02:56:53.412Z,99.99
2018-07-14T02:58:02.063Z,99.99
2018-07-14T02:59:10.963Z,99.99
2018-07-14T03:00:19.622Z,99.99
2018-07-14T03:01:28.540Z,99.99
2018-07-14T03:02:37.450Z,99.99
2018-07-14T03:03:46.631Z,99.99
2018-07-14T03:04:55.267Z,99.99
2018-07-14T03:06:04.188Z,99.99
2018-07-14T03:07:12.832Z,99.99
2018-07-14T03:08:21.491Z,99.99
2018-07-14T03:09:30.131Z,99.99
2018-07-14T03:10:38.781Z,99.99
2018-07-14T03:11:47.707Z,99.99
2018-07-14T03:12:57.316Z,99.99
2018-07-14T03:14:06.031Z,99.99
2018-07-14T03:15:15.073Z,99.99
2018-07-14T03:16:24.069Z,99.99
2018-07-14T03:17:32.919Z,99.99
2018-07-14T03:18:42.158Z,99.99
2018-07-14T03:19:51.354Z,99.99
2018-07-14T03:21:00.094Z,99.99
2018-07-14T03:22:09.240Z,99.99
2018-07-14T03:23:17.891Z,99.99
2018-07-14T03:24:26.542Z,99.99
2018-07-14T03:25:35.187Z,99.99
2018-07-14T03:26:43.826Z,99.99
2018-07-14T03:27:52.477Z,99.99
2018-07-14T03:29:01.123Z,99.99
2018-07-14T03:30:09.769Z,99.99
2018-07-14T03:31:18.414Z,99.99
2018-07-14T03:32:27.601Z,99.99
2018-07-14T03:33:36.500Z,99.99
2018-07-14T03:34:45.408Z,99.99
2018-07-14T03:35:54.048Z,99.99
2018-07-14T03:37:02.693Z,99.99
2018-07-14T03:38:11.603Z,99.99
2018-07-14T03:39:20.248Z,99.99
2018-07-14T03:40:28.895Z,99.99
2018-07-14T03:41:37.536Z,99.99
2018-07-14T03:42:46.444Z,99.99
2018-07-14T03:43:55.090Z,99.99
2018-07-14T03:45:03.739Z,99.99
2018-07-14T03:46:12.651Z,99.99
2018-07-14T03:47:21.288Z,99.99
2018-07-14T03:48:29.932Z,99.99
2018-07-14T03:49:38.585Z,99.99
2018-07-14T03:50:47.222Z,99.99
2018-07-14T03:51:55.863Z,99.99
2018-07-14T03:53:04.506Z,99.99
2018-07-14T03:54:13.157Z,99.99
2018-07-14T03:55:21.795Z,99.99
2018-07-14T03:56:30.440Z,99.99
2018-07-14T03:57:39.084Z,99.99
2018-07-14T03:58:47.729Z,99.99
2018-07-14T03:59:56.376Z,99.99
2018-07-14T04:01:05.284Z,99.99
2018-07-14T04:02:13.930Z,99.99
2018-07-14T04:03:22.570Z,99.99
2018-07-14T04:04:31.224Z,99.99
2018-07-14T04:05:39.870Z,99.99
2018-07-14T04:06:48.521Z,99.99
2018-07-14T04:07:57.424Z,99.99
2018-07-14T04:09:06.081Z,99.99
2018-07-14T04:10:14.722Z,99.99
2018-07-14T04:11:23.369Z,99.99
2018-07-14T04:12:32.004Z,99.99
2018-07-14T04:13:40.650Z,99.99
2018-07-14T04:14:49.347Z,99.99
2018-07-14T04:15:58.218Z,99.99
2018-07-14T04:17:06.866Z,99.99
2018-07-14T04:18:15.503Z,99.99
2018-07-14T04:19:24.150Z,99.99
2018-07-14T04:20:32.794Z,99.99
2018-07-14T04:21:41.708Z,99.99
2018-07-14T04:22:50.356Z,99.99
2018-07-14T04:23:59.265Z,99.99
2018-07-14T04:25:07.905Z,99.99
2018-07-14T04:26:16.560Z,99.99
2018-07-14T04:27:25.194Z,99.99
2018-07-14T04:28:33.840Z,99.99
2018-07-14T04:29:42.483Z,99.99
2018-07-14T04:30:51.136Z,99.99
2018-07-14T04:31:59.819Z,99.99
2018-07-14T04:33:08.416Z,99.99
2018-07-14T04:34:17.069Z,99.99
2018-07-14T04:35:25.707Z,99.99
2018-07-14T04:36:34.361Z,99.99
2018-07-14T04:37:43.002Z,99.99
2018-07-14T04:38:51.651Z,99.99
2018-07-14T04:40:00.287Z,99.99
2018-07-14T04:41:09.207Z,99.99
2018-07-14T04:42:17.857Z,99.99
2018-07-14T04:43:26.498Z,99.99
2018-07-14T04:44:35.135Z,99.99
2018-07-14T04:45:43.788Z,99.99
2018-07-14T04:46:52.432Z,99.99
2018-07-14T04:48:01.082Z,99.99
2018-07-14T04:49:09.717Z,99.99
2018-07-14T04:50:18.365Z,99.99
2018-07-14T04:51:27.017Z,99.99
2018-07-14T04:52:35.928Z,99.99
2018-07-14T04:53:44.838Z,99.99
2018-07-14T04:54:53.744Z,99.99
2018-07-14T04:56:02.394Z,99.99
2018-07-14T04:57:11.299Z,99.99
2018-07-14T04:58:19.953Z,99.99
2018-07-14T04:59:28.853Z,99.99
2018-07-14T05:00:37.766Z,99.99
2018-07-14T05:01:46.667Z,99.99
2018-07-14T05:02:55.323Z,99.99
2018-07-14T05:04:04.226Z,99.99
2018-07-14T05:05:12.872Z,99.99
2018-07-14T05:06:21.553Z,99.99
2018-07-14T05:07:30.160Z,99.99
2018-07-14T05:08:38.809Z,99.99
2018-07-14T05:09:47.464Z,99.99
2018-07-14T05:10:56.111Z,99.99
2018-07-14T05:12:05.018Z,99.99
2018-07-14T05:13:13.655Z,99.99
2018-07-14T05:14:22.306Z,99.99
2018-07-14T05:15:30.946Z,99.99
2018-07-14T05:16:39.601Z,99.99
2018-07-14T05:17:48.774Z,99.99
2018-07-14T05:18:57.425Z,99.99
2018-07-14T05:20:06.067Z,99.99
2018-07-14T05:21:14.793Z,99.99
2018-07-14T05:22:23.368Z,99.99
2018-07-14T05:23:32.016Z,99.99
2018-07-14T05:24:40.660Z,99.99
2018-07-14T05:25:49.582Z,99.99
2018-07-14T05:26:58.484Z,99.99
2018-07-14T05:28:07.126Z,99.99
2018-07-14T05:29:15.771Z,99.99
2018-07-14T05:30:24.415Z,99.99
2018-07-14T05:31:33.071Z,99.99
2018-07-14T05:32:41.725Z,99.99
2018-07-14T05:33:50.377Z,99.99
2018-07-14T05:34:59.011Z,99.99
2018-07-14T05:36:07.667Z,99.99
2018-07-14T05:37:16.309Z,99.99
2018-07-14T05:38:24.969Z,99.99
2018-07-14T05:39:33.599Z,99.99
2018-07-14T05:40:42.255Z,99.99
2018-07-14T05:41:50.899Z,99.99
2018-07-14T05:42:59.548Z,99.99
2018-07-14T05:44:08.326Z,99.99
2018-07-14T05:45:16.834Z,99.99
2018-07-14T05:46:25.749Z,99.99
2018-07-14T05:47:34.662Z,99.99
2018-07-14T05:48:43.311Z,99.99
2018-07-14T05:49:51.950Z,99.99
2018-07-14T05:51:00.601Z,99.99
2018-07-14T05:52:09.819Z,99.99
2018-07-14T05:53:18.418Z,99.99
2018-07-14T05:54:27.317Z,99.99
2018-07-14T05:55:35.970Z,99.91
2018-07-14T05:56:44.611Z,99.99
2018-07-14T05:57:53.266Z,99.05
2018-07-14T05:59:01.902Z,99.15
2018-07-14T06:00:10.552Z,99.53
2018-07-14T06:01:19.197Z,99.53
2018-07-14T06:02:27.854Z,98.76
2018-07-14T06:03:36.767Z,98.1
2018-07-14T06:04:45.407Z,98.86
2018-07-14T06:05:54.058Z,98.52
2018-07-14T06:07:02.707Z,97.18
2018-07-14T06:08:11.355Z,97.47
2018-07-14T06:09:19.999Z,95.75
2018-07-14T06:10:28.917Z,95.07
2018-07-14T06:11:37.560Z,96.7
2018-07-14T06:12:46.212Z,95.03
2018-07-14T06:13:54.861Z,95.89
2018-07-14T06:15:03.770Z,95.98
2018-07-14T06:16:12.412Z,94.64
2018-07-14T06:17:21.116Z,95.03
2018-07-14T06:18:29.709Z,94.54
2018-07-14T06:19:38.770Z,94.07
2018-07-14T06:20:47.386Z,94.02
2018-07-14T06:21:56.034Z,94.21
2018-07-14T06:23:04.684Z,94.02
2018-07-14T06:24:13.344Z,93.25
2018-07-14T06:25:22.260Z,93.44
2018-07-14T06:26:31.170Z,92.82
2018-07-14T06:27:39.817Z,93.01
2018-07-14T06:28:48.466Z,94.26
2018-07-14T06:29:57.118Z,94.35
2018-07-14T06:31:05.769Z,94.17
2018-07-14T06:32:14.417Z,94.07
2018-07-14T06:33:23.329Z,93.49
2018-07-14T06:34:31.979Z,93.49
2018-07-14T06:35:40.627Z,93.59
2018-07-14T06:36:49.273Z,93.49
2018-07-14T06:37:58.182Z,93.78
2018-07-14T06:39:06.839Z,93.49
2018-07-14T06:40:15.753Z,94.17
2018-07-14T06:41:24.403Z,93.01
2018-07-14T06:42:33.111Z,93.63
2018-07-14T06:43:42.019Z,92.82
2018-07-14T06:44:50.712Z,92.91
2018-07-14T06:45:59.316Z,93.49
2018-07-14T06:47:07.963Z,93.01
2018-07-14T06:48:16.605Z,93.35
2018-07-14T06:49:25.256Z,94.21
2018-07-14T06:50:33.906Z,93.44
2018-07-14T06:51:42.550Z,93.82
2018-07-14T06:52:51.191Z,93.73
2018-07-14T06:54:00.376Z,92.77
2018-07-14T06:55:09.019Z,92.68
2018-07-14T06:56:17.667Z,92.58
2018-07-14T06:57:26.589Z,91.91
2018-07-14T06:58:35.238Z,91.91
2018-07-14T06:59:43.886Z,92.29
2018-07-14T07:00:52.539Z,91.91
2018-07-14T07:02:01.188Z,91.14
2018-07-14T07:03:10.093Z,91.81
2018-07-14T07:04:19.018Z,91.91
2018-07-14T07:05:27.669Z,92.14
2018-07-14T07:06:36.307Z,91.28
2018-07-14T07:07:45.240Z,91.14
2018-07-14T07:08:53.881Z,91.57
2018-07-14T07:10:02.533Z,91.47
2018-07-14T07:11:11.174Z,90.61
2018-07-14T07:12:20.143Z,90.22
2018-07-14T07:13:28.788Z,92.05
2018-07-14T07:14:37.438Z,91.96
2018-07-14T07:15:46.079Z,91.19
2018-07-14T07:16:54.731Z,90.32
2018-07-14T07:18:03.644Z,90.32
2018-07-14T07:19:12.300Z,89.55
2018-07-14T07:20:20.947Z,89.84
2018-07-14T07:21:29.621Z,89.65
2018-07-14T07:22:38.237Z,90.22
2018-07-14T07:23:47.145Z,90.13
2018-07-14T07:24:55.803Z,90.13
2018-07-14T07:26:04.704Z,90.42
2018-07-14T07:27:13.357Z,90.42
2018-07-14T07:28:21.998Z,90.37
2018-07-14T07:29:30.920Z,89.79
2018-07-14T07:30:39.558Z,89.79
2018-07-14T07:31:48.211Z,89.5
2018-07-14T07:32:56.857Z,88.83
2018-07-14T07:34:05.538Z,88.06
2018-07-14T07:35:14.476Z,87.68
2018-07-14T07:36:23.101Z,88.06
2018-07-14T07:37:31.752Z,88.68
2018-07-14T07:38:40.399Z,86.76
2018-07-14T07:39:49.056Z,86.33
2018-07-14T07:40:57.698Z,86.72
2018-07-14T07:42:06.350Z,87.29
2018-07-14T07:43:15.036Z,86.18
2018-07-14T07:44:23.650Z,86.14
2018-07-14T07:45:32.292Z,86.52
2018-07-14T07:46:40.947Z,86.72
2018-07-14T07:47:49.587Z,86.76
2018-07-14T07:48:58.242Z,86.76
2018-07-14T07:50:06.889Z,85.32
2018-07-14T07:51:15.537Z,85.27
2018-07-14T07:52:24.178Z,85.17
2018-07-14T07:53:32.829Z,84.5
2018-07-14T07:54:41.488Z,84.11
2018-07-14T07:55:50.138Z,84.5
2018-07-14T07:56:58.790Z,84.11
2018-07-14T07:58:07.429Z,83.34
2018-07-14T07:59:16.080Z,83.73
2018-07-14T08:00:24.724Z,84.69
2018-07-14T08:01:33.380Z,84.5
2018-07-14T08:02:42.022Z,84.45
2018-07-14T08:03:50.932Z,84.36
2018-07-14T08:04:59.576Z,85.13
2018-07-14T08:06:08.239Z,85.32
2018-07-14T08:07:16.885Z,85.32
2018-07-14T08:08:25.536Z,84.84
2018-07-14T08:09:34.198Z,85.13
2018-07-14T08:10:42.838Z,84.84
2018-07-14T08:11:51.483Z,86.18
2018-07-14T08:13:00.132Z,84.94
2018-07-14T08:14:08.780Z,84.84
2018-07-14T08:15:17.424Z,83.73
2018-07-14T08:16:26.078Z,84.26
2018-07-14T08:17:34.729Z,83.25
2018-07-14T08:18:43.380Z,83.34
2018-07-14T08:19:52.025Z,83.73
2018-07-14T08:21:00.678Z,84.21
2018-07-14T08:22:09.331Z,83.25
2018-07-14T08:23:18.251Z,83.25
2018-07-14T08:24:26.893Z,83.63
2018-07-14T08:25:35.548Z,83.15
2018-07-14T08:26:44.201Z,83.48
2018-07-14T08:27:52.853Z,83.96
2018-07-14T08:29:01.496Z,82.71
2018-07-14T08:30:10.147Z,82.04
2018-07-14T08:31:19.323Z,82.23
2018-07-14T08:32:28.025Z,83.48
2018-07-14T08:33:36.628Z,83.48
2018-07-14T08:34:45.534Z,82.04
2018-07-14T08:35:54.182Z,82.04
2018-07-14T08:37:02.831Z,81.75
2018-07-14T08:38:11.589Z,81.07
2018-07-14T08:39:20.130Z,81.27
2018-07-14T08:40:28.778Z,81.65
2018-07-14T08:41:37.688Z,81.46
2018-07-14T08:42:46.610Z,81.75
2018-07-14T08:43:55.260Z,81.27
2018-07-14T08:45:03.905Z,80.63
2018-07-14T08:46:12.552Z,81.21
2018-07-14T08:47:21.207Z,80.54
2018-07-14T08:48:29.852Z,80.54
2018-07-14T08:49:38.505Z,80.25
2018-07-14T08:50:47.153Z,80.83
2018-07-14T08:51:55.799Z,80.63
2018-07-14T08:53:04.454Z,80.54
2018-07-14T08:54:13.103Z,78.52
2018-07-14T08:55:21.751Z,79
2018-07-14T08:56:30.654Z,79.1
2018-07-14T08:57:39.307Z,78.08
2018-07-14T08:58:47.962Z,79.03
2018-07-14T08:59:56.876Z,80.19
2018-07-14T09:01:05.796Z,78.65
2018-07-14T09:02:14.441Z,79.71
2018-07-14T09:03:23.093Z,78.65
2018-07-14T09:04:31.742Z,78.56
2018-07-14T09:05:40.400Z,79.03
2018-07-14T09:06:49.048Z,78.65
2018-07-14T09:07:57.697Z,77.98
2018-07-14T09:09:06.344Z,78.23
2018-07-14T09:10:14.990Z,78.52
2018-07-14T09:11:23.642Z,79
2018-07-14T09:12:32.293Z,79
2018-07-14T09:13:40.943Z,77.46
2018-07-14T09:14:49.589Z,77.5
2018-07-14T09:15:58.242Z,77.46
2018-07-14T09:17:06.895Z,77.4
2018-07-14T09:18:15.809Z,77.01
2018-07-14T09:19:24.461Z,77.26
2018-07-14T09:20:33.166Z,77.78
2018-07-14T09:21:42.026Z,77.88
2018-07-14T09:22:50.673Z,77.4
2018-07-14T09:23:59.319Z,77.59
2018-07-14T09:25:07.972Z,77.98
2018-07-14T09:26:16.624Z,77.98
2018-07-14T09:27:25.277Z,77.4
2018-07-14T09:28:33.928Z,77.88
2018-07-14T09:29:42.574Z,76.63
2018-07-14T09:30:51.224Z,76.06
2018-07-14T09:31:59.875Z,76.44
2018-07-14T09:33:08.538Z,77.11
2018-07-14T09:34:17.176Z,76.73
2018-07-14T09:35:25.826Z,77.11
2018-07-14T09:36:34.478Z,77.21
2018-07-14T09:37:43.129Z,76.63
2018-07-14T09:38:51.774Z,75.13
2018-07-14T09:40:00.427Z,75.71
2018-07-14T09:41:09.073Z,75.8
2018-07-14T09:42:17.727Z,75.9
2018-07-14T09:43:26.374Z,75.03
2018-07-14T09:44:35.051Z,74.16
2018-07-14T09:45:43.680Z,74.74
2018-07-14T09:46:52.590Z,75.8
2018-07-14T09:48:01.246Z,74.74
2018-07-14T09:49:09.892Z,74.3
2018-07-14T09:50:18.547Z,74.88
2018-07-14T09:51:27.458Z,74.78
2018-07-14T09:52:36.114Z,74.2
2018-07-14T09:53:44.763Z,73.43
2018-07-14T09:54:53.417Z,72.95
2018-07-14T09:56:02.328Z,73.57
2018-07-14T09:57:10.985Z,73.33
2018-07-14T09:58:19.898Z,72.99
2018-07-14T09:59:28.551Z,73.62
2018-07-14T10:00:37.455Z,73.62
2018-07-14T10:01:46.370Z,73.53
2018-07-14T10:02:55.026Z,72.75
2018-07-14T10:04:03.681Z,74.01
2018-07-14T10:05:12.337Z,75.16
2018-07-14T10:06:20.977Z,75.16
2018-07-14T10:07:29.900Z,75.36
2018-07-14T10:08:38.546Z,72.31
2018-07-14T10:09:47.470Z,72.31
2018-07-14T10:10:56.115Z,72.41
2018-07-14T10:12:05.037Z,73.08
2018-07-14T10:13:13.742Z,73.37
2018-07-14T10:14:22.348Z,72.69
2018-07-14T10:15:30.990Z,71.44
2018-07-14T10:16:39.642Z,72.6
2018-07-14T10:17:48.335Z,72.6
2018-07-14T10:18:56.953Z,72.12
2018-07-14T10:20:05.600Z,72.31
2018-07-14T10:21:14.252Z,72.99
2018-07-14T10:22:22.954Z,72.69
2018-07-14T10:23:31.545Z,72.21
2018-07-14T10:24:40.208Z,72.12
2018-07-14T10:25:49.006Z,72.41
2018-07-14T10:26:58.100Z,72.41
2018-07-14T10:28:06.744Z,71.44
2018-07-14T10:29:15.404Z,72.02
2018-07-14T10:30:24.051Z,72.21
2018-07-14T10:31:32.707Z,72.41
2018-07-14T10:32:41.356Z,70.8
2018-07-14T10:33:50.044Z,71.28
2018-07-14T10:34:59.279Z,71.19
2018-07-14T10:36:07.934Z,71.8
2018-07-14T10:37:16.837Z,69.68
2018-07-14T10:38:25.495Z,68.36
2018-07-14T10:39:34.147Z,69.13
2018-07-14T10:40:42.806Z,68.84
2018-07-14T10:41:51.459Z,69.32
2018-07-14T10:43:00.123Z,69.13
2018-07-14T10:44:08.755Z,69.04
2018-07-14T10:45:17.670Z,69.23
2018-07-14T10:46:26.594Z,68.65
2018-07-14T10:47:35.236Z,69.13
2018-07-14T10:48:43.893Z,69.58
2018-07-14T10:49:52.808Z,69.49
2018-07-14T10:51:01.464Z,71.42
2018-07-14T10:52:10.104Z,72.63
2018-07-14T10:53:18.757Z,72.73
2018-07-14T10:54:27.681Z,72.44
2018-07-14T10:55:36.341Z,73.79
2018-07-14T10:56:44.990Z,73.89
2018-07-14T10:57:53.634Z,72.92
2018-07-14T10:59:02.591Z,73.69
2018-07-14T11:00:11.500Z,71.28
2018-07-14T11:01:20.158Z,71.77
2018-07-14T11:02:28.811Z,71.58
2018-07-14T11:03:37.464Z,71.67
2018-07-14T11:04:46.110Z,70.74
2018-07-14T11:05:54.766Z,72.15
2018-07-14T11:07:03.417Z,71.22
2018-07-14T11:08:12.082Z,69.87
2018-07-14T11:09:20.725Z,69
2018-07-14T11:10:29.380Z,69.68
2018-07-14T11:11:38.286Z,68.84
2018-07-14T11:12:46.939Z,69.23
2018-07-14T11:13:55.589Z,68.26
2018-07-14T11:15:04.241Z,68.17
2018-07-14T11:16:12.892Z,67.88
2018-07-14T11:17:21.823Z,68.36
2018-07-14T11:18:30.477Z,69.26
2018-07-14T11:19:39.386Z,68.88
2018-07-14T11:20:48.041Z,66.36
2018-07-14T11:21:56.695Z,66.56
2018-07-14T11:23:05.350Z,66.2
2018-07-14T11:24:14.001Z,66.3
2018-07-14T11:25:22.649Z,65.72
2018-07-14T11:26:31.303Z,65.85
2018-07-14T11:27:40.233Z,66.33
2018-07-14T11:28:48.881Z,65.85
2018-07-14T11:29:57.524Z,64.69
2018-07-14T11:31:06.179Z,67.79
2018-07-14T11:32:14.835Z,66.33
2018-07-14T11:33:23.486Z,66.98
2018-07-14T11:34:32.185Z,68.14
2018-07-14T11:35:41.143Z,67.85
2018-07-14T11:36:49.792Z,67.04
2018-07-14T11:37:58.447Z,66.94
2018-07-14T11:39:07.112Z,67.14
2018-07-14T11:40:16.040Z,67.91
2018-07-14T11:41:24.687Z,68.59
2018-07-14T11:42:33.607Z,70.23
2018-07-14T11:43:42.258Z,69.71
2018-07-14T11:44:50.925Z,69.52
2018-07-14T11:45:59.828Z,68.84
2018-07-14T11:47:08.481Z,69.04
2018-07-14T11:48:17.132Z,68.84
2018-07-14T11:49:25.785Z,67.62
2018-07-14T11:50:34.433Z,67.24
2018-07-14T11:51:43.346Z,66.27
2018-07-14T11:52:51.997Z,66.94
2018-07-14T11:54:00.651Z,67.24
2018-07-14T11:55:09.310Z,67.72
2018-07-14T11:56:18.219Z,67.72
2018-07-14T11:57:27.137Z,68.3
2018-07-14T11:58:35.785Z,68.78
2018-07-14T11:59:44.716Z,70.14
2018-07-14T12:00:53.624Z,66.17
2018-07-14T12:02:02.613Z,66.27
2018-07-14T12:03:11.463Z,66.56
2018-07-14T12:04:20.130Z,65.4
2018-07-14T12:05:28.772Z,64.95
2018-07-14T12:06:37.425Z,64.37
2018-07-14T12:07:46.075Z,65.05
2018-07-14T12:08:54.740Z,64.79
2018-07-14T12:10:03.386Z,64.98
2018-07-14T12:11:12.034Z,62.21
2018-07-14T12:12:20.684Z,61.72
2018-07-14T12:13:29.395Z,61.15
2018-07-14T12:14:37.995Z,61.82
2018-07-14T12:15:46.642Z,62.01
2018-07-14T12:16:55.301Z,61.66
2018-07-14T12:18:03.954Z,61.53
2018-07-14T12:19:12.872Z,61.43
2018-07-14T12:20:21.520Z,61.82
2018-07-14T12:21:30.445Z,62.59
2018-07-14T12:22:39.088Z,62.88
2018-07-14T12:23:47.751Z,64.24
2018-07-14T12:24:56.399Z,62.69
2018-07-14T12:26:05.055Z,63.34
2018-07-14T12:27:13.700Z,63.92
2018-07-14T12:28:22.358Z,64.31
2018-07-14T12:29:31.279Z,63.24
2018-07-14T12:30:40.046Z,63.82
2018-07-14T12:31:48.587Z,64.01
2018-07-14T12:32:57.231Z,63.37
2018-07-14T12:34:05.886Z,63.95
2018-07-14T12:35:14.798Z,61.72
2018-07-14T12:36:23.460Z,60.08
2018-07-14T12:37:32.103Z,60.57
2018-07-14T12:38:40.759Z,60.85
2018-07-14T12:39:49.406Z,60.85
2018-07-14T12:40:58.067Z,59.89
2018-07-14T12:42:06.709Z,61.53
2018-07-14T12:43:15.383Z,59.01
2018-07-14T12:44:24.013Z,58.82
2018-07-14T12:45:32.675Z,60.75
2018-07-14T12:46:41.325Z,60.75
2018-07-14T12:47:49.973Z,60.85
2018-07-14T12:48:58.625Z,58.75
2018-07-14T12:50:07.279Z,57.5
2018-07-14T12:51:15.937Z,57.3
2018-07-14T12:52:24.584Z,56.62
2018-07-14T12:53:33.244Z,55.85
2018-07-14T12:54:42.155Z,56.43
2018-07-14T12:55:50.810Z,56.92
2018-07-14T12:56:59.467Z,57.2
2018-07-14T12:58:08.384Z,58.07
2018-07-14T12:59:17.308Z,59.17
2018-07-14T13:00:26.210Z,57.53
2018-07-14T13:01:34.862Z,57.14
2018-07-14T13:02:43.515Z,58.01
2018-07-14T13:03:52.181Z,56.65
2018-07-14T13:05:01.095Z,57.81
2018-07-14T13:06:10.538Z,58.11
2018-07-14T13:07:19.450Z,58.01
2018-07-14T13:08:28.106Z,59.17
2018-07-14T13:09:36.762Z,57.53
2018-07-14T13:10:45.412Z,55.88
2018-07-14T13:11:54.333Z,56.56
2018-07-14T13:13:03.241Z,57.04
2018-07-14T13:14:11.901Z,56.85
2018-07-14T13:15:20.549Z,56.75
2018-07-14T13:16:29.476Z,56.85
2018-07-14T13:17:38.119Z,57.71
2018-07-14T13:18:46.784Z,57.23
2018-07-14T13:19:55.430Z,56.36
2018-07-14T13:21:04.096Z,56.75
2018-07-14T13:22:12.739Z,57.04
2018-07-14T13:23:21.395Z,57.53
2018-07-14T13:24:30.053Z,56.85
2018-07-14T13:25:38.972Z,56.56
2018-07-14T13:26:47.626Z,56.65
2018-07-14T13:27:56.273Z,56.46
2018-07-14T13:29:04.929Z,56.65
2018-07-14T13:30:13.898Z,57.65
2018-07-14T13:31:22.877Z,56.97
2018-07-14T13:32:31.520Z,58.04
2018-07-14T13:33:40.173Z,56.77
2018-07-14T13:34:48.822Z,57.55
2018-07-14T13:35:57.483Z,55.81
2018-07-14T13:37:06.390Z,55.81
2018-07-14T13:38:15.044Z,55.9
2018-07-14T13:39:23.695Z,56.49
2018-07-14T13:40:32.391Z,55.71
2018-07-14T13:41:41.038Z,55.62
2018-07-14T13:42:49.689Z,55.78
2018-07-14T13:43:58.333Z,56.36
2018-07-14T13:45:06.984Z,55.49
2018-07-14T13:46:15.652Z,55.78
2018-07-14T13:47:24.572Z,55.68
2018-07-14T13:48:33.233Z,55.1
2018-07-14T13:49:41.876Z,55.4
2018-07-14T13:50:50.815Z,55.78
2018-07-14T13:51:59.466Z,54.71
2018-07-14T13:53:08.392Z,54.33
2018-07-14T13:54:17.305Z,55.88
2018-07-14T13:55:25.962Z,56.97
2018-07-14T13:56:34.611Z,57.84
2018-07-14T13:57:43.269Z,57.45
2018-07-14T13:58:51.913Z,56.68
2018-07-14T14:00:00.834Z,54.64
2018-07-14T14:01:09.488Z,54.74
2018-07-14T14:02:18.140Z,54.64
2018-07-14T14:03:26.797Z,53.49
2018-07-14T14:04:35.708Z,53.19
2018-07-14T14:05:44.366Z,52.51
2018-07-14T14:06:53.020Z,53.77
2018-07-14T14:08:01.684Z,53.67
2018-07-14T14:09:10.332Z,53
2018-07-14T14:10:18.990Z,52.83
2018-07-14T14:11:27.642Z,53.51
2018-07-14T14:12:36.300Z,53.12
2018-07-14T14:13:44.948Z,53.83
2018-07-14T14:14:53.601Z,52.08
2018-07-14T14:16:02.254Z,52.37
2018-07-14T14:17:10.910Z,52.18
2018-07-14T14:18:19.561Z,51.01
2018-07-14T14:19:28.215Z,51.01
2018-07-14T14:20:36.864Z,52.37
2018-07-14T14:21:45.513Z,53.34
2018-07-14T14:22:54.173Z,52.06
2018-07-14T14:24:02.827Z,52.93
2018-07-14T14:25:11.477Z,53.61
2018-07-14T14:26:20.129Z,53.89
2018-07-14T14:27:28.787Z,53.8
2018-07-14T14:28:37.446Z,55.54
2018-07-14T14:29:46.098Z,54.06
2018-07-14T14:30:54.748Z,53.87
2018-07-14T14:32:03.407Z,55.52
2018-07-14T14:33:12.059Z,53.97
2018-07-14T14:34:20.715Z,53.19
2018-07-14T14:35:29.370Z,53.29
2018-07-14T14:36:38.027Z,54.16
2018-07-14T14:37:46.683Z,53.87
2018-07-14T14:38:55.336Z,53.77
2018-07-14T14:40:03.992Z,53.99
2018-07-14T14:41:12.943Z,52.93
2018-07-14T14:42:21.596Z,52.71
2018-07-14T14:43:30.515Z,54.16
2018-07-14T14:44:39.172Z,53.77
2018-07-14T14:45:47.822Z,53.87
2018-07-14T14:46:56.477Z,54.28